Indianapolis, Indiana
Traffic Map
Current Weather Conditions
Indianapolis, Indiana
Few Clouds
Few Clouds
54°
Feels Like: 54°
Wind Chill: 54° Ceiling: Unl
Heat Index: 54° Visibility: 10mi
Dew Point: 50° Wind: 5mph
Humidity: 86% Direction: 190° (S)
Pressure: 30.23in Gusts: 0mph
Raw Report DataKIND 200754Z 19004KT 10SM FEW230 12/10 A3023 RMK AO2 SLP234 T01220100
Traffic Incident Summary
Active as of:
Severity:
Category:
InformationThere was an issue retrieving the traffic information for this location. Please try a different location or try again shortly.
Advertisements